sensor_id;sensor_type;location;lat;lon;timestamp;P1;durP1;ratioP1;P2;durP2;ratioP2
48263;SDS011;34086;51.076;13.722;2023-02-28T00:00:57;11.40;;;7.68;;
48263;SDS011;34086;51.076;13.722;2023-02-28T00:01:57;12.70;;;8.23;;
48263;SDS011;34086;51.076;13.722;2023-02-28T00:02:58;13.98;;;8.27;;
48263;SDS011;34086;51.076;13.722;2023-02-28T00:03:59;12.82;;;8.23;;
48263;SDS011;34086;51.076;13.722;2023-02-28T00:04:59;13.90;;;8.00;;
48263;SDS011;34086;51.076;13.722;2023-02-28T00:06:02;11.73;;;7.70;;
48263;SDS011;34086;51.076;13.722;2023-02-28T00:07:03;10.63;;;7.50;;
48263;SDS011;34086;51.076;13.722;2023-02-28T00:08:04;12.07;;;7.80;;
48263;SDS011;34086;51.076;13.722;2023-02-28T00:09:05;10.27;;;7.38;;
48263;SDS011;34086;51.076;13.722;2023-02-28T00:10:05;11.57;;;7.53;;
48263;SDS011;34086;51.076;13.722;2023-02-28T00:11:08;11.35;;;7.47;;
48263;SDS011;34086;51.076;13.722;2023-02-28T00:12:10;12.23;;;8.10;;
48263;SDS011;34086;51.076;13.722;2023-02-28T00:13:12;10.98;;;7.43;;
48263;SDS011;34086;51.076;13.722;2023-02-28T00:14:13;11.77;;;8.07;;
48263;SDS011;34086;51.076;13.722;2023-02-28T00:15:13;13.15;;;8.23;;
48263;SDS011;34086;51.076;13.722;2023-02-28T00:16:15;11.85;;;7.80;;
48263;SDS011;34086;51.076;13.722;2023-02-28T00:17:18;14.02;;;8.43;;
48263;SDS011;34086;51.076;13.722;2023-02-28T00:18:20;13.20;;;8.45;;
48263;SDS011;34086;51.076;13.722;2023-02-28T00:19:21;12.70;;;7.80;;
48263;SDS011;34086;51.076;13.722;2023-02-28T00:20:22;12.60;;;8.52;;
48263;SDS011;34086;51.076;13.722;2023-02-28T00:21:22;12.30;;;8.45;;
48263;SDS011;34086;51.076;13.722;2023-02-28T00:22:24;14.52;;;8.23;;
48263;SDS011;34086;51.076;13.722;2023-02-28T00:23:25;13.70;;;8.40;;
48263;SDS011;34086;51.076;13.722;2023-02-28T00:24:26;14.13;;;8.55;;
48263;SDS011;34086;51.076;13.722;2023-02-28T00:25:26;14.15;;;8.57;;
48263;SDS011;34086;51.076;13.722;2023-02-28T00:26:27;12.75;;;8.60;;
48263;SDS011;34086;51.076;13.722;2023-02-28T00:27:28;12.75;;;8.15;;
48263;SDS011;34086;51.076;13.722;2023-02-28T00:28:28;13.15;;;8.38;;
48263;SDS011;34086;51.076;13.722;2023-02-28T00:29:29;14.00;;;8.57;;
48263;SDS011;34086;51.076;13.722;2023-02-28T00:30:29;14.40;;;8.48;;
48263;SDS011;34086;51.076;13.722;2023-02-28T00:31:30;13.45;;;8.00;;
48263;SDS011;34086;51.076;13.722;2023-02-28T00:32:30;12.32;;;7.90;;
48263;SDS011;34086;51.076;13.722;2023-02-28T00:33:31;14.68;;;8.80;;
48263;SDS011;34086;51.076;13.722;2023-02-28T00:34:32;14.85;;;9.73;;
48263;SDS011;34086;51.076;13.722;2023-02-28T00:35:37;17.55;;;10.90;;
48263;SDS011;34086;51.076;13.722;2023-02-28T00:36:38;17.17;;;10.88;;
48263;SDS011;34086;51.076;13.722;2023-02-28T00:37:38;16.60;;;10.10;;
48263;SDS011;34086;51.076;13.722;2023-02-28T00:38:39;16.10;;;10.07;;
48263;SDS011;34086;51.076;13.722;2023-02-28T00:39:40;17.05;;;10.48;;
48263;SDS011;34086;51.076;13.722;2023-02-28T00:40:41;18.63;;;10.40;;
48263;SDS011;34086;51.076;13.722;2023-02-28T00:41:44;16.80;;;9.77;;
48263;SDS011;34086;51.076;13.722;2023-02-28T00:42:45;15.50;;;9.55;;
48263;SDS011;34086;51.076;13.722;2023-02-28T00:43:45;14.57;;;9.18;;
48263;SDS011;34086;51.076;13.722;2023-02-28T00:44:46;12.77;;;8.48;;
48263;SDS011;34086;51.076;13.722;2023-02-28T00:45:47;11.52;;;8.10;;
48263;SDS011;34086;51.076;13.722;2023-02-28T00:46:47;15.98;;;8.43;;
48263;SDS011;34086;51.076;13.722;2023-02-28T00:47:48;13.13;;;8.63;;
48263;SDS011;34086;51.076;13.722;2023-02-28T00:48:49;14.20;;;8.25;;
48263;SDS011;34086;51.076;13.722;2023-02-28T00:49:50;14.38;;;8.75;;
48263;SDS011;34086;51.076;13.722;2023-02-28T00:50:50;14.48;;;8.13;;
48263;SDS011;34086;51.076;13.722;2023-02-28T00:51:51;12.60;;;8.00;;
48263;SDS011;34086;51.076;13.722;2023-02-28T00:52:53;14.20;;;8.57;;
48263;SDS011;34086;51.076;13.722;2023-02-28T00:53:54;12.43;;;8.27;;
48263;SDS011;34086;51.076;13.722;2023-02-28T00:54:54;13.15;;;8.27;;
48263;SDS011;34086;51.076;13.722;2023-02-28T00:55:55;14.63;;;8.20;;
48263;SDS011;34086;51.076;13.722;2023-02-28T00:56:56;12.90;;;8.20;;
48263;SDS011;34086;51.076;13.722;2023-02-28T00:57:57;10.75;;;7.70;;
48263;SDS011;34086;51.076;13.722;2023-02-28T00:58:59;14.02;;;8.48;;
48263;SDS011;34086;51.076;13.722;2023-02-28T00:59:59;14.73;;;9.32;;
48263;SDS011;34086;51.076;13.722;2023-02-28T01:01:01;15.82;;;10.07;;
48263;SDS011;34086;51.076;13.722;2023-02-28T01:02:02;18.80;;;11.05;;
48263;SDS011;34086;51.076;13.722;2023-02-28T01:03:02;17.23;;;10.80;;
48263;SDS011;34086;51.076;13.722;2023-02-28T01:04:03;17.05;;;10.60;;
48263;SDS011;34086;51.076;13.722;2023-02-28T01:05:04;18.90;;;10.70;;
48263;SDS011;34086;51.076;13.722;2023-02-28T01:06:05;17.67;;;10.90;;
48263;SDS011;34086;51.076;13.722;2023-02-28T01:07:06;18.13;;;10.98;;
48263;SDS011;34086;51.076;13.722;2023-02-28T01:08:07;15.25;;;10.27;;
48263;SDS011;34086;51.076;13.722;2023-02-28T01:09:08;18.73;;;11.05;;
48263;SDS011;34086;51.076;13.722;2023-02-28T01:10:09;19.88;;;11.63;;
48263;SDS011;34086;51.076;13.722;2023-02-28T01:11:11;25.60;;;14.93;;
48263;SDS011;34086;51.076;13.722;2023-02-28T01:12:14;25.58;;;14.00;;
48263;SDS011;34086;51.076;13.722;2023-02-28T01:13:15;24.33;;;13.98;;
48263;SDS011;34086;51.076;13.722;2023-02-28T01:14:16;21.92;;;12.68;;
48263;SDS011;34086;51.076;13.722;2023-02-28T01:15:19;19.45;;;11.52;;
48263;SDS011;34086;51.076;13.722;2023-02-28T01:16:20;17.85;;;11.10;;
48263;SDS011;34086;51.076;13.722;2023-02-28T01:17:20;16.05;;;10.38;;
48263;SDS011;34086;51.076;13.722;2023-02-28T01:18:21;15.75;;;10.40;;
48263;SDS011;34086;51.076;13.722;2023-02-28T01:19:21;16.05;;;10.13;;
48263;SDS011;34086;51.076;13.722;2023-02-28T01:20:22;15.82;;;10.32;;
48263;SDS011;34086;51.076;13.722;2023-02-28T01:21:23;16.70;;;10.75;;
48263;SDS011;34086;51.076;13.722;2023-02-28T01:22:24;15.93;;;11.02;;
48263;SDS011;34086;51.076;13.722;2023-02-28T01:23:24;16.67;;;10.65;;
48263;SDS011;34086;51.076;13.722;2023-02-28T01:24:25;17.58;;;10.10;;
48263;SDS011;34086;51.076;13.722;2023-02-28T01:25:25;15.48;;;9.48;;
48263;SDS011;34086;51.076;13.722;2023-02-28T01:26:26;16.77;;;10.80;;
48263;SDS011;34086;51.076;13.722;2023-02-28T01:27:26;15.18;;;9.73;;
48263;SDS011;34086;51.076;13.722;2023-02-28T01:28:28;16.52;;;9.48;;
48263;SDS011;34086;51.076;13.722;2023-02-28T01:29:30;14.23;;;9.07;;
48263;SDS011;34086;51.076;13.722;2023-02-28T01:30:31;15.48;;;9.65;;
48263;SDS011;34086;51.076;13.722;2023-02-28T01:31:32;14.48;;;8.82;;
48263;SDS011;34086;51.076;13.722;2023-02-28T01:32:32;14.98;;;9.27;;
48263;SDS011;34086;51.076;13.722;2023-02-28T01:33:33;14.07;;;8.80;;
48263;SDS011;34086;51.076;13.722;2023-02-28T01:34:33;15.00;;;8.80;;
48263;SDS011;34086;51.076;13.722;2023-02-28T01:35:34;12.25;;;8.27;;
48263;SDS011;34086;51.076;13.722;2023-02-28T01:36:35;15.60;;;9.10;;
48263;SDS011;34086;51.076;13.722;2023-02-28T01:37:36;14.52;;;9.45;;
48263;SDS011;34086;51.076;13.722;2023-02-28T01:38:37;13.40;;;8.88;;
48263;SDS011;34086;51.076;13.722;2023-02-28T01:39:38;15.02;;;9.43;;
48263;SDS011;34086;51.076;13.722;2023-02-28T01:40:39;15.07;;;9.18;;
48263;SDS011;34086;51.076;13.722;2023-02-28T01:41:39;14.50;;;8.93;;
48263;SDS011;34086;51.076;13.722;2023-02-28T01:42:41;14.00;;;9.20;;
48263;SDS011;34086;51.076;13.722;2023-02-28T01:44:55;14.32;;;9.10;;
48263;SDS011;34086;51.076;13.722;2023-02-28T01:46:20;15.35;;;9.30;;
48263;SDS011;34086;51.076;13.722;2023-02-28T01:47:21;14.55;;;9.07;;
48263;SDS011;34086;51.076;13.722;2023-02-28T01:48:25;13.45;;;9.15;;
48263;SDS011;34086;51.076;13.722;2023-02-28T01:49:29;15.50;;;9.40;;
48263;SDS011;34086;51.076;13.722;2023-02-28T01:50:31;14.98;;;9.48;;
48263;SDS011;34086;51.076;13.722;2023-02-28T01:51:47;15.98;;;9.20;;
48263;SDS011;34086;51.076;13.722;2023-02-28T01:52:54;14.48;;;9.15;;
48263;SDS011;34086;51.076;13.722;2023-02-28T01:54:01;15.45;;;8.95;;
48263;SDS011;34086;51.076;13.722;2023-02-28T01:55:05;14.40;;;9.18;;
48263;SDS011;34086;51.076;13.722;2023-02-28T01:56:07;14.68;;;9.10;;
48263;SDS011;34086;51.076;13.722;2023-02-28T01:57:10;15.65;;;8.85;;
48263;SDS011;34086;51.076;13.722;2023-02-28T01:58:15;14.27;;;9.23;;
48263;SDS011;34086;51.076;13.722;2023-02-28T01:59:19;13.70;;;8.77;;
48263;SDS011;34086;51.076;13.722;2023-02-28T02:00:27;14.57;;;8.73;;
48263;SDS011;34086;51.076;13.722;2023-02-28T02:01:30;11.85;;;8.45;;
48263;SDS011;34086;51.076;13.722;2023-02-28T02:02:31;14.00;;;8.52;;
48263;SDS011;34086;51.076;13.722;2023-02-28T02:03:31;14.55;;;8.82;;
48263;SDS011;34086;51.076;13.722;2023-02-28T02:04:34;11.73;;;8.27;;
48263;SDS011;34086;51.076;13.722;2023-02-28T02:05:40;14.00;;;8.70;;
48263;SDS011;34086;51.076;13.722;2023-02-28T02:06:42;13.55;;;8.40;;
48263;SDS011;34086;51.076;13.722;2023-02-28T02:07:46;13.07;;;8.80;;
48263;SDS011;34086;51.076;13.722;2023-02-28T02:08:49;12.20;;;8.45;;
48263;SDS011;34086;51.076;13.722;2023-02-28T02:09:50;15.50;;;9.27;;
48263;SDS011;34086;51.076;13.722;2023-02-28T02:11:07;13.43;;;8.93;;
48263;SDS011;34086;51.076;13.722;2023-02-28T02:12:17;14.20;;;8.75;;
48263;SDS011;34086;51.076;13.722;2023-02-28T02:17:42;14.40;;;8.48;;
48263;SDS011;34086;51.076;13.722;2023-02-28T02:18:52;13.32;;;8.68;;
48263;SDS011;34086;51.076;13.722;2023-02-28T02:22:02;13.40;;;8.20;;
48263;SDS011;34086;51.076;13.722;2023-02-28T02:23:28;13.23;;;8.50;;
48263;SDS011;34086;51.076;13.722;2023-02-28T02:35:11;12.80;;;8.82;;
48263;SDS011;34086;51.076;13.722;2023-02-28T02:36:27;14.18;;;9.15;;
48263;SDS011;34086;51.076;13.722;2023-02-28T02:39:08;14.70;;;9.15;;
48263;SDS011;34086;51.076;13.722;2023-02-28T02:40:50;16.98;;;9.35;;
48263;SDS011;34086;51.076;13.722;2023-02-28T02:42:11;15.07;;;9.57;;
48263;SDS011;34086;51.076;13.722;2023-02-28T02:43:24;15.45;;;9.80;;
48263;SDS011;34086;51.076;13.722;2023-02-28T02:45:42;17.17;;;9.95;;
48263;SDS011;34086;51.076;13.722;2023-02-28T02:46:51;15.38;;;9.25;;
48263;SDS011;34086;51.076;13.722;2023-02-28T02:48:01;14.00;;;8.90;;
48263;SDS011;34086;51.076;13.722;2023-02-28T02:49:05;14.95;;;9.57;;
48263;SDS011;34086;51.076;13.722;2023-02-28T02:50:14;14.93;;;9.57;;
48263;SDS011;34086;51.076;13.722;2023-02-28T02:51:22;15.90;;;10.35;;
48263;SDS011;34086;51.076;13.722;2023-02-28T02:52:29;16.23;;;10.90;;
48263;SDS011;34086;51.076;13.722;2023-02-28T02:53:35;17.42;;;10.63;;
48263;SDS011;34086;51.076;13.722;2023-02-28T02:54:49;16.80;;;10.38;;
48263;SDS011;34086;51.076;13.722;2023-02-28T02:55:53;18.30;;;11.02;;
48263;SDS011;34086;51.076;13.722;2023-02-28T02:56:57;14.18;;;10.10;;
48263;SDS011;34086;51.076;13.722;2023-02-28T02:58:02;16.45;;;10.30;;
48263;SDS011;34086;51.076;13.722;2023-02-28T02:59:07;16.55;;;10.05;;
48263;SDS011;34086;51.076;13.722;2023-02-28T03:00:11;15.52;;;10.00;;
48263;SDS011;34086;51.076;13.722;2023-02-28T03:01:16;14.70;;;9.57;;
48263;SDS011;34086;51.076;13.722;2023-02-28T03:02:27;14.40;;;9.68;;
48263;SDS011;34086;51.076;13.722;2023-02-28T03:03:33;14.55;;;9.30;;
48263;SDS011;34086;51.076;13.722;2023-02-28T03:04:40;15.45;;;9.63;;
48263;SDS011;34086;51.076;13.722;2023-02-28T03:05:46;15.82;;;9.73;;
48263;SDS011;34086;51.076;13.722;2023-02-28T03:06:48;16.17;;;10.07;;
48263;SDS011;34086;51.076;13.722;2023-02-28T03:07:55;14.68;;;9.18;;
48263;SDS011;34086;51.076;13.722;2023-02-28T03:08:56;17.38;;;10.63;;
48263;SDS011;34086;51.076;13.722;2023-02-28T03:09:57;15.13;;;9.93;;
48263;SDS011;34086;51.076;13.722;2023-02-28T03:10:58;16.17;;;10.02;;
48263;SDS011;34086;51.076;13.722;2023-02-28T03:12:02;17.05;;;10.40;;
48263;SDS011;34086;51.076;13.722;2023-02-28T03:13:07;14.70;;;9.88;;
48263;SDS011;34086;51.076;13.722;2023-02-28T03:15:28;15.88;;;10.45;;
48263;SDS011;34086;51.076;13.722;2023-02-28T03:18:01;16.85;;;10.02;;
48263;SDS011;34086;51.076;13.722;2023-02-28T03:20:48;15.30;;;10.30;;
48263;SDS011;34086;51.076;13.722;2023-02-28T03:23:18;18.45;;;11.43;;
48263;SDS011;34086;51.076;13.722;2023-02-28T03:24:31;18.60;;;11.68;;
48263;SDS011;34086;51.076;13.722;2023-02-28T03:25:45;20.08;;;12.50;;
48263;SDS011;34086;51.076;13.722;2023-02-28T03:26:50;20.30;;;12.70;;
48263;SDS011;34086;51.076;13.722;2023-02-28T03:28:08;23.73;;;13.07;;
48263;SDS011;34086;51.076;13.722;2023-02-28T03:29:50;21.23;;;12.68;;
48263;SDS011;34086;51.076;13.722;2023-02-28T03:30:54;20.92;;;12.35;;
48263;SDS011;34086;51.076;13.722;2023-02-28T03:32:13;24.45;;;13.70;;
48263;SDS011;34086;51.076;13.722;2023-02-28T03:33:27;27.90;;;15.05;;
48263;SDS011;34086;51.076;13.722;2023-02-28T03:34:38;24.67;;;14.35;;
48263;SDS011;34086;51.076;13.722;2023-02-28T03:35:51;26.05;;;14.48;;
48263;SDS011;34086;51.076;13.722;2023-02-28T03:36:56;26.30;;;14.70;;
48263;SDS011;34086;51.076;13.722;2023-02-28T03:38:00;23.83;;;14.18;;
48263;SDS011;34086;51.076;13.722;2023-02-28T03:39:07;21.52;;;13.10;;
48263;SDS011;34086;51.076;13.722;2023-02-28T03:40:21;22.50;;;13.85;;
48263;SDS011;34086;51.076;13.722;2023-02-28T03:41:26;25.85;;;14.70;;
48263;SDS011;34086;51.076;13.722;2023-02-28T03:42:34;26.17;;;15.40;;
48263;SDS011;34086;51.076;13.722;2023-02-28T03:43:38;25.42;;;14.80;;
48263;SDS011;34086;51.076;13.722;2023-02-28T03:44:44;25.65;;;14.52;;
48263;SDS011;34086;51.076;13.722;2023-02-28T03:45:49;26.75;;;15.20;;
48263;SDS011;34086;51.076;13.722;2023-02-28T03:47:00;27.25;;;15.93;;
48263;SDS011;34086;51.076;13.722;2023-02-28T03:49:16;24.30;;;13.85;;
48263;SDS011;34086;51.076;13.722;2023-02-28T03:50:29;21.92;;;12.57;;
48263;SDS011;34086;51.076;13.722;2023-02-28T03:51:38;20.85;;;12.63;;
48263;SDS011;34086;51.076;13.722;2023-02-28T03:52:48;19.92;;;12.25;;
48263;SDS011;34086;51.076;13.722;2023-02-28T03:54:06;19.30;;;12.10;;
48263;SDS011;34086;51.076;13.722;2023-02-28T03:55:28;21.60;;;12.65;;
48263;SDS011;34086;51.076;13.722;2023-02-28T03:56:49;22.15;;;12.57;;
48263;SDS011;34086;51.076;13.722;2023-02-28T03:57:57;21.98;;;12.98;;
48263;SDS011;34086;51.076;13.722;2023-02-28T03:59:10;25.63;;;15.13;;
48263;SDS011;34086;51.076;13.722;2023-02-28T04:00:18;30.33;;;16.60;;
48263;SDS011;34086;51.076;13.722;2023-02-28T04:01:29;26.15;;;15.80;;
48263;SDS011;34086;51.076;13.722;2023-02-28T04:02:36;40.15;;;20.85;;
48263;SDS011;34086;51.076;13.722;2023-02-28T04:03:37;38.67;;;21.35;;
48263;SDS011;34086;51.076;13.722;2023-02-28T04:04:38;40.42;;;20.75;;
48263;SDS011;34086;51.076;13.722;2023-02-28T04:05:51;36.77;;;19.80;;
48263;SDS011;34086;51.076;13.722;2023-02-28T04:07:01;32.83;;;18.45;;
48263;SDS011;34086;51.076;13.722;2023-02-28T04:08:07;34.83;;;18.90;;
48263;SDS011;34086;51.076;13.722;2023-02-28T04:09:09;31.45;;;18.00;;
48263;SDS011;34086;51.076;13.722;2023-02-28T04:10:11;29.77;;;17.30;;
48263;SDS011;34086;51.076;13.722;2023-02-28T04:11:18;33.90;;;19.23;;
48263;SDS011;34086;51.076;13.722;2023-02-28T04:12:27;34.58;;;18.95;;
48263;SDS011;34086;51.076;13.722;2023-02-28T04:13:28;32.97;;;18.52;;
48263;SDS011;34086;51.076;13.722;2023-02-28T04:14:28;35.83;;;19.60;;
48263;SDS011;34086;51.076;13.722;2023-02-28T04:15:29;33.15;;;18.13;;
48263;SDS011;34086;51.076;13.722;2023-02-28T04:16:30;33.63;;;17.73;;
48263;SDS011;34086;51.076;13.722;2023-02-28T04:17:31;32.40;;;18.30;;
48263;SDS011;34086;51.076;13.722;2023-02-28T04:18:32;30.83;;;17.52;;
48263;SDS011;34086;51.076;13.722;2023-02-28T04:19:32;30.50;;;17.02;;
48263;SDS011;34086;51.076;13.722;2023-02-28T04:20:33;29.70;;;17.27;;
48263;SDS011;34086;51.076;13.722;2023-02-28T04:21:37;26.80;;;15.85;;
48263;SDS011;34086;51.076;13.722;2023-02-28T04:22:40;24.17;;;14.98;;
48263;SDS011;34086;51.076;13.722;2023-02-28T04:23:40;24.17;;;14.27;;
48263;SDS011;34086;51.076;13.722;2023-02-28T04:24:41;22.63;;;13.95;;
48263;SDS011;34086;51.076;13.722;2023-02-28T04:25:41;23.02;;;14.05;;
48263;SDS011;34086;51.076;13.722;2023-02-28T04:26:43;23.10;;;14.55;;
48263;SDS011;34086;51.076;13.722;2023-02-28T04:27:49;28.52;;;15.57;;
48263;SDS011;34086;51.076;13.722;2023-02-28T04:28:49;25.13;;;14.50;;
48263;SDS011;34086;51.076;13.722;2023-02-28T04:29:50;28.13;;;15.93;;
48263;SDS011;34086;51.076;13.722;2023-02-28T04:30:54;27.20;;;15.90;;
48263;SDS011;34086;51.076;13.722;2023-02-28T04:31:59;26.58;;;16.00;;
48263;SDS011;34086;51.076;13.722;2023-02-28T04:33:01;27.27;;;16.30;;
48263;SDS011;34086;51.076;13.722;2023-02-28T04:34:02;25.70;;;16.05;;
48263;SDS011;34086;51.076;13.722;2023-02-28T04:35:02;27.98;;;16.30;;
48263;SDS011;34086;51.076;13.722;2023-02-28T04:36:04;25.42;;;15.68;;
48263;SDS011;34086;51.076;13.722;2023-02-28T04:37:09;23.42;;;14.73;;
48263;SDS011;34086;51.076;13.722;2023-02-28T04:38:10;22.58;;;14.68;;
48263;SDS011;34086;51.076;13.722;2023-02-28T04:39:10;22.30;;;13.88;;
48263;SDS011;34086;51.076;13.722;2023-02-28T04:40:11;23.77;;;14.05;;
48263;SDS011;34086;51.076;13.722;2023-02-28T04:41:12;22.05;;;13.95;;
48263;SDS011;34086;51.076;13.722;2023-02-28T04:42:13;21.65;;;14.07;;
48263;SDS011;34086;51.076;13.722;2023-02-28T04:43:14;22.00;;;13.63;;
48263;SDS011;34086;51.076;13.722;2023-02-28T04:44:15;21.90;;;13.73;;
48263;SDS011;34086;51.076;13.722;2023-02-28T04:45:16;21.27;;;12.95;;
48263;SDS011;34086;51.076;13.722;2023-02-28T04:46:17;21.15;;;13.45;;
48263;SDS011;34086;51.076;13.722;2023-02-28T04:47:18;22.80;;;13.70;;
48263;SDS011;34086;51.076;13.722;2023-02-28T04:48:18;23.65;;;13.82;;
48263;SDS011;34086;51.076;13.722;2023-02-28T04:49:19;24.95;;;14.98;;
48263;SDS011;34086;51.076;13.722;2023-02-28T04:50:19;22.17;;;14.07;;
48263;SDS011;34086;51.076;13.722;2023-02-28T04:51:20;24.33;;;14.18;;
48263;SDS011;34086;51.076;13.722;2023-02-28T04:52:20;23.33;;;14.23;;
48263;SDS011;34086;51.076;13.722;2023-02-28T04:53:21;22.42;;;13.45;;
48263;SDS011;34086;51.076;13.722;2023-02-28T04:54:22;23.00;;;14.23;;
48263;SDS011;34086;51.076;13.722;2023-02-28T04:55:22;22.98;;;13.93;;
48263;SDS011;34086;51.076;13.722;2023-02-28T04:56:23;24.55;;;14.75;;
48263;SDS011;34086;51.076;13.722;2023-02-28T04:57:24;21.65;;;13.82;;
48263;SDS011;34086;51.076;13.722;2023-02-28T04:58:25;22.95;;;14.30;;
48263;SDS011;34086;51.076;13.722;2023-02-28T04:59:25;22.50;;;14.75;;
48263;SDS011;34086;51.076;13.722;2023-02-28T05:00:26;23.83;;;15.20;;
48263;SDS011;34086;51.076;13.722;2023-02-28T05:01:28;25.00;;;14.60;;
48263;SDS011;34086;51.076;13.722;2023-02-28T05:02:30;24.50;;;14.63;;
48263;SDS011;34086;51.076;13.722;2023-02-28T05:03:33;24.33;;;14.30;;
48263;SDS011;34086;51.076;13.722;2023-02-28T05:04:34;26.17;;;15.43;;
48263;SDS011;34086;51.076;13.722;2023-02-28T05:05:35;23.70;;;14.38;;
48263;SDS011;34086;51.076;13.722;2023-02-28T05:06:35;24.00;;;14.65;;
48263;SDS011;34086;51.076;13.722;2023-02-28T05:07:36;23.90;;;15.27;;
48263;SDS011;34086;51.076;13.722;2023-02-28T05:08:36;24.75;;;15.60;;
48263;SDS011;34086;51.076;13.722;2023-02-28T05:09:37;24.98;;;15.55;;
48263;SDS011;34086;51.076;13.722;2023-02-28T05:10:37;26.90;;;15.68;;
48263;SDS011;34086;51.076;13.722;2023-02-28T05:11:38;27.65;;;16.02;;
48263;SDS011;34086;51.076;13.722;2023-02-28T05:12:39;23.30;;;14.55;;
48263;SDS011;34086;51.076;13.722;2023-02-28T05:13:40;25.25;;;15.73;;
48263;SDS011;34086;51.076;13.722;2023-02-28T05:14:40;24.15;;;15.25;;
48263;SDS011;34086;51.076;13.722;2023-02-28T05:15:41;25.60;;;15.70;;
48263;SDS011;34086;51.076;13.722;2023-02-28T05:16:43;28.27;;;16.88;;
48263;SDS011;34086;51.076;13.722;2023-02-28T05:17:43;28.80;;;16.35;;
48263;SDS011;34086;51.076;13.722;2023-02-28T05:18:44;24.25;;;15.32;;
48263;SDS011;34086;51.076;13.722;2023-02-28T05:19:45;23.92;;;15.95;;
48263;SDS011;34086;51.076;13.722;2023-02-28T05:20:45;26.92;;;16.52;;
48263;SDS011;34086;51.076;13.722;2023-02-28T05:21:50;26.40;;;16.17;;
48263;SDS011;34086;51.076;13.722;2023-02-28T05:22:52;26.70;;;15.98;;
48263;SDS011;34086;51.076;13.722;2023-02-28T05:23:53;30.33;;;16.30;;
48263;SDS011;34086;51.076;13.722;2023-02-28T05:24:54;28.20;;;16.58;;
48263;SDS011;34086;51.076;13.722;2023-02-28T05:25:55;25.90;;;15.50;;
48263;SDS011;34086;51.076;13.722;2023-02-28T05:26:56;27.15;;;16.30;;
48263;SDS011;34086;51.076;13.722;2023-02-28T05:27:57;25.50;;;15.60;;
48263;SDS011;34086;51.076;13.722;2023-02-28T05:28:57;27.05;;;16.58;;
48263;SDS011;34086;51.076;13.722;2023-02-28T05:29:58;25.92;;;15.68;;
48263;SDS011;34086;51.076;13.722;2023-02-28T05:30:59;26.30;;;16.55;;
48263;SDS011;34086;51.076;13.722;2023-02-28T05:31:59;26.45;;;16.38;;
48263;SDS011;34086;51.076;13.722;2023-02-28T05:33:00;25.58;;;15.82;;
48263;SDS011;34086;51.076;13.722;2023-02-28T05:34:01;26.30;;;16.02;;
48263;SDS011;34086;51.076;13.722;2023-02-28T05:35:04;27.13;;;15.95;;
48263;SDS011;34086;51.076;13.722;2023-02-28T05:36:05;25.42;;;15.45;;
48263;SDS011;34086;51.076;13.722;2023-02-28T05:37:07;25.20;;;15.82;;
48263;SDS011;34086;51.076;13.722;2023-02-28T05:38:12;27.17;;;15.77;;
48263;SDS011;34086;51.076;13.722;2023-02-28T05:39:12;27.38;;;15.98;;
48263;SDS011;34086;51.076;13.722;2023-02-28T05:40:13;29.85;;;16.90;;
48263;SDS011;34086;51.076;13.722;2023-02-28T05:41:15;27.23;;;16.30;;
48263;SDS011;34086;51.076;13.722;2023-02-28T05:42:16;27.98;;;16.65;;
48263;SDS011;34086;51.076;13.722;2023-02-28T05:43:16;29.05;;;16.95;;
48263;SDS011;34086;51.076;13.722;2023-02-28T05:44:17;29.52;;;17.60;;
48263;SDS011;34086;51.076;13.722;2023-02-28T05:45:17;27.65;;;16.20;;
48263;SDS011;34086;51.076;13.722;2023-02-28T05:46:18;29.73;;;17.13;;
48263;SDS011;34086;51.076;13.722;2023-02-28T05:47:18;28.58;;;16.70;;
48263;SDS011;34086;51.076;13.722;2023-02-28T05:48:19;26.98;;;16.02;;
48263;SDS011;34086;51.076;13.722;2023-02-28T05:49:19;27.25;;;16.35;;
48263;SDS011;34086;51.076;13.722;2023-02-28T05:50:20;26.02;;;15.60;;
48263;SDS011;34086;51.076;13.722;2023-02-28T05:51:20;28.90;;;16.73;;
48263;SDS011;34086;51.076;13.722;2023-02-28T05:52:21;24.77;;;16.42;;
48263;SDS011;34086;51.076;13.722;2023-02-28T05:53:22;26.60;;;16.60;;
48263;SDS011;34086;51.076;13.722;2023-02-28T05:54:22;29.20;;;16.80;;
48263;SDS011;34086;51.076;13.722;2023-02-28T05:55:23;26.17;;;16.42;;
48263;SDS011;34086;51.076;13.722;2023-02-28T05:56:24;27.42;;;16.85;;
48263;SDS011;34086;51.076;13.722;2023-02-28T05:57:24;27.73;;;17.35;;
48263;SDS011;34086;51.076;13.722;2023-02-28T05:58:25;26.63;;;17.05;;
48263;SDS011;34086;51.076;13.722;2023-02-28T05:59:30;29.10;;;17.45;;
48263;SDS011;34086;51.076;13.722;2023-02-28T06:00:30;29.60;;;16.98;;
48263;SDS011;34086;51.076;13.722;2023-02-28T06:01:35;28.75;;;17.73;;
48263;SDS011;34086;51.076;13.722;2023-02-28T06:02:38;30.17;;;17.48;;
48263;SDS011;34086;51.076;13.722;2023-02-28T06:03:40;30.52;;;17.42;;
48263;SDS011;34086;51.076;13.722;2023-02-28T06:04:41;29.83;;;17.98;;
48263;SDS011;34086;51.076;13.722;2023-02-28T06:05:41;29.65;;;18.00;;
48263;SDS011;34086;51.076;13.722;2023-02-28T06:06:42;30.25;;;17.98;;
48263;SDS011;34086;51.076;13.722;2023-02-28T06:07:43;32.10;;;18.60;;
48263;SDS011;34086;51.076;13.722;2023-02-28T06:08:44;30.45;;;17.77;;
48263;SDS011;34086;51.076;13.722;2023-02-28T06:09:45;29.60;;;18.25;;
48263;SDS011;34086;51.076;13.722;2023-02-28T06:10:46;30.48;;;18.00;;
48263;SDS011;34086;51.076;13.722;2023-02-28T06:11:46;30.05;;;18.33;;
48263;SDS011;34086;51.076;13.722;2023-02-28T06:12:47;31.58;;;18.45;;
48263;SDS011;34086;51.076;13.722;2023-02-28T06:13:47;31.15;;;18.75;;
48263;SDS011;34086;51.076;13.722;2023-02-28T06:14:48;29.40;;;17.98;;
48263;SDS011;34086;51.076;13.722;2023-02-28T06:15:49;31.25;;;18.45;;
48263;SDS011;34086;51.076;13.722;2023-02-28T06:16:49;31.88;;;18.90;;
48263;SDS011;34086;51.076;13.722;2023-02-28T06:17:50;33.25;;;18.55;;
48263;SDS011;34086;51.076;13.722;2023-02-28T06:18:50;33.47;;;17.90;;
48263;SDS011;34086;51.076;13.722;2023-02-28T06:19:52;30.33;;;18.40;;
48263;SDS011;34086;51.076;13.722;2023-02-28T06:20:53;31.33;;;18.15;;
48263;SDS011;34086;51.076;13.722;2023-02-28T06:21:54;31.13;;;18.38;;
48263;SDS011;34086;51.076;13.722;2023-02-28T06:22:56;30.10;;;17.88;;
48263;SDS011;34086;51.076;13.722;2023-02-28T06:23:58;30.52;;;18.48;;
48263;SDS011;34086;51.076;13.722;2023-02-28T06:24:59;33.05;;;18.85;;
48263;SDS011;34086;51.076;13.722;2023-02-28T06:25:59;31.52;;;18.75;;
48263;SDS011;34086;51.076;13.722;2023-02-28T06:27:00;28.05;;;17.67;;
48263;SDS011;34086;51.076;13.722;2023-02-28T06:28:04;30.02;;;18.33;;
48263;SDS011;34086;51.076;13.722;2023-02-28T06:29:05;30.02;;;18.42;;
48263;SDS011;34086;51.076;13.722;2023-02-28T06:30:07;28.05;;;17.52;;
48263;SDS011;34086;51.076;13.722;2023-02-28T06:31:08;27.50;;;17.15;;
48263;SDS011;34086;51.076;13.722;2023-02-28T06:32:10;28.42;;;17.30;;
48263;SDS011;34086;51.076;13.722;2023-02-28T06:33:10;32.72;;;18.77;;
48263;SDS011;34086;51.076;13.722;2023-02-28T06:34:11;30.95;;;17.95;;
48263;SDS011;34086;51.076;13.722;2023-02-28T06:35:12;32.00;;;18.42;;